Time;durP1;ratioP1;P1;durP2;ratioP2;P2;SDS_P1;SDS_P2;PMS_P1;PMS_P2;Temp;Humidity;BMP_temperature;BMP_pressure;BME280_temperature;BME280_humidity;BME280_pressure;Samples;Min_cycle;Max_cycle;Signal;HPM_P1;HPM_P2
2023/05/17 00:00:29;;;;;;;;;;;4.90;99.90;;;;;;5029692;28;19913;-89
2023/05/17 00:03:03;;;;;;;;;;;5.00;99.90;;;;;;5034004;28;20360;-89
2023/05/17 00:05:38;;;;;;;;;;;4.90;99.90;;;;;;5018164;28;19916;-89
2023/05/17 00:08:04;;;;;;;;;;;4.80;99.90;;;;;;5031545;28;20015;-89
2023/05/17 00:10:30;;;;;;;;;;;4.70;99.90;;;;;;5019346;28;19950;-89
2023/05/17 00:12:55;;;;;;;;;;;4.70;99.90;;;;;;5025780;28;20118;-90
2023/05/17 00:15:21;;;;;;;;;;;4.70;99.90;;;;;;5020401;28;20000;-89
2023/05/17 00:17:46;;;;;;;;;;;4.70;99.90;;;;;;5035242;28;19932;-90
2023/05/17 00:20:12;;;;;;;;;;;4.60;99.90;;;;;;5021641;28;19924;-89
2023/05/17 00:22:56;;;;;;;;;;;4.60;99.90;;;;;;5027742;28;19914;-89
2023/05/17 00:25:22;;;;;;;;;;;4.60;99.90;;;;;;5030172;28;19909;-89
2023/05/17 00:27:47;;;;;;;;;;;4.60;99.90;;;;;;5014299;28;20391;-89
2023/05/17 00:30:13;;;;;;;;;;;4.50;99.90;;;;;;5031094;28;19913;-89
2023/05/17 00:32:39;;;;;;;;;;;4.50;99.90;;;;;;5023325;28;20280;-89
2023/05/17 00:35:04;;;;;;;;;;;4.50;99.90;;;;;;5030881;28;19920;-89
2023/05/17 00:37:30;;;;;;;;;;;4.40;99.90;;;;;;5035851;28;19910;-89
2023/05/17 00:39:56;;;;;;;;;;;4.20;99.90;;;;;;5026234;28;19909;-89
2023/05/17 00:42:22;;;;;;;;;;;4.20;99.90;;;;;;5013869;28;20396;-89
2023/05/17 00:44:48;;;;;;;;;;;4.20;99.90;;;;;;5019191;28;19909;-89
2023/05/17 00:47:13;;;;;;;;;;;4.20;99.90;;;;;;5031332;28;19917;-89
2023/05/17 00:49:39;;;;;;;;;;;4.20;99.90;;;;;;5020564;28;20372;-89
2023/05/17 00:52:05;;;;;;;;;;;4.20;99.90;;;;;;5025345;28;19971;-89
2023/05/17 00:54:31;;;;;;;;;;;4.20;99.90;;;;;;5022280;28;20275;-89
2023/05/17 00:56:58;;;;;;;;;;;4.20;99.90;;;;;;5033792;28;24073;-89
2023/05/17 00:59:24;;;;;;;;;;;4.20;99.90;;;;;;5023590;28;19916;-89
2023/05/17 01:01:51;;;;;;;;;;;4.20;99.90;;;;;;5029878;28;19909;-89
2023/05/17 01:04:17;;;;;;;;;;;4.20;99.90;;;;;;5025252;28;19916;-88
2023/05/17 01:06:43;;;;;;;;;;;4.20;99.90;;;;;;5033808;28;19909;-88
2023/05/17 01:09:08;;;;;;;;;;;4.10;99.90;;;;;;5035421;28;19995;-89
2023/05/17 01:11:39;;;;;;;;;;;4.20;99.90;;;;;;5026412;28;24079;-89
2023/05/17 01:14:22;;;;;;;;;;;4.10;99.90;;;;;;5051552;28;19909;-89
2023/05/17 01:17:31;;;;;;;7.20;3.80;;;4.10;99.90;;;;;;5026551;28;20076;-89
2023/05/17 01:20:05;;;;;;;8.38;2.97;;;4.20;99.90;;;;;;5024700;28;20021;-89
2023/05/17 01:22:41;;;;;;;10.85;2.70;;;4.20;99.90;;;;;;5041466;28;20022;-89
2023/05/17 01:25:25;;;;;;;15.18;2.78;;;4.10;99.90;;;;;;5036787;28;20021;-89
2023/05/17 01:27:54;;;;;;;11.50;3.15;;;4.10;99.90;;;;;;5037141;28;20021;-89
2023/05/17 01:30:21;;;;;;;;;;;4.10;99.90;;;;;;5029966;28;20022;-89
2023/05/17 01:32:47;;;;;;;;;;;4.10;99.90;;;;;;5036961;28;19909;-89
2023/05/17 01:35:13;;;;;;;;;;;4.00;99.90;;;;;;5034008;28;19971;-89
2023/05/17 01:37:39;;;;;;;;;;;4.00;99.90;;;;;;5025927;28;19913;-89
2023/05/17 01:40:07;;;;;;;;;;;4.10;99.90;;;;;;5034112;28;20257;-89
2023/05/17 01:42:37;;;;;;;;;;;4.10;99.90;;;;;;5025985;28;20345;-88
2023/05/17 01:45:11;;;;;;;;;;;4.10;99.90;;;;;;5034529;28;19916;-90
2023/05/17 01:48:14;;;;;;;;;;;4.00;99.90;;;;;;5024947;28;19909;-89
2023/05/17 01:51:06;;;;;;;;;;;3.90;99.90;;;;;;5034846;28;19963;-89
2023/05/17 01:53:36;;;;;;;;;;;3.80;99.90;;;;;;5020019;28;19909;-89
2023/05/17 01:56:04;;;;;;;;;;;3.70;99.90;;;;;;5034157;28;19913;-89
2023/05/17 01:58:29;;;;;;;;;;;3.70;99.90;;;;;;5037082;28;19913;-89
2023/05/17 02:00:56;;;;;;;;;;;3.70;99.90;;;;;;5035643;28;19968;-89
2023/05/17 02:03:22;;;;;;;;;;;3.70;99.90;;;;;;5016537;28;20000;-89
2023/05/17 02:05:51;;;;;;;;;;;3.70;99.90;;;;;;5020353;28;20289;-89
2023/05/17 02:08:20;;;;;;;;;;;3.80;99.90;;;;;;5040054;28;19956;-89
2023/05/17 02:10:45;;;;;;;;;;;3.80;99.90;;;;;;5020633;28;19932;-89
2023/05/17 02:13:11;;;;;;;;;;;3.80;99.90;;;;;;5020590;28;19909;-89
2023/05/17 02:15:37;;;;;;;;;;;3.90;99.90;;;;;;5006015;28;20063;-90
2023/05/17 02:18:05;;;;;;;;;;;3.90;99.90;;;;;;5021859;28;19909;-88
2023/05/17 02:20:31;;;;;;;;;;;3.90;99.90;;;;;;5024696;28;19917;-88
2023/05/17 02:22:56;;;;;;;;;;;3.90;99.90;;;;;;5035931;28;19909;-89
2023/05/17 02:25:22;;;;;;;;;;;3.80;99.90;;;;;;5018256;28;20321;-89
2023/05/17 02:27:48;;;;;;;;;;;3.80;99.90;;;;;;5036825;28;19963;-89
2023/05/17 02:30:15;;;;;;;;;;;3.90;99.90;;;;;;5034996;28;19905;-89
2023/05/17 02:32:41;;;;;;;;;;;4.00;99.90;;;;;;5027117;28;20348;-89
2023/05/17 02:35:08;;;;;;;;;;;4.10;99.90;;;;;;5028362;28;19931;-89
2023/05/17 02:37:33;;;;;;;;;;;4.10;99.90;;;;;;5024452;28;19909;-89
2023/05/17 02:39:59;;;;;;;;;;;4.20;99.90;;;;;;5033404;28;19916;-89
2023/05/17 02:42:25;;;;;;;;;;;4.20;99.90;;;;;;5024955;28;19909;-89
2023/05/17 02:44:53;;;;;;;;;;;4.20;99.90;;;;;;5038808;28;19909;-89
2023/05/17 02:47:22;;;;;;;;;;;4.30;99.90;;;;;;5025505;28;19913;-89
2023/05/17 02:49:48;;;;;;;;;;;4.30;99.90;;;;;;5024655;28;19909;-89
2023/05/17 02:52:14;;;;;;;;;;;4.30;99.90;;;;;;5035342;28;20021;-88
2023/05/17 02:54:42;;;;;;;;;;;4.30;99.90;;;;;;5026323;28;20004;-89
2023/05/17 02:57:09;;;;;;;;;;;4.30;99.90;;;;;;5036252;28;19914;-88
2023/05/17 02:59:35;;;;;;;;;;;4.40;99.90;;;;;;5022282;28;19960;-89
2023/05/17 03:02:01;;;;;;;;;;;4.40;99.90;;;;;;5032996;28;20428;-89
2023/05/17 03:04:27;;;;;;;;;;;4.40;99.90;;;;;;5035648;28;19937;-89
2023/05/17 03:06:54;;;;;;;;;;;4.30;99.90;;;;;;5035042;28;20384;-90
2023/05/17 03:09:20;;;;;;;;;;;4.40;99.90;;;;;;5031572;28;19909;-89
2023/05/17 03:11:48;;;;;;;;;;;4.50;99.90;;;;;;5023952;28;19913;-88
2023/05/17 03:14:19;;;;;;;;;;;4.50;99.90;;;;;;5032370;28;19975;-89
2023/05/17 03:16:45;;;;;;;;;;;4.50;99.90;;;;;;5023231;28;19945;-89
2023/05/17 03:19:12;;;;;;;;;;;4.40;99.90;;;;;;5031584;28;19939;-90
2023/05/17 03:21:39;;;;;;;;;;;4.50;99.90;;;;;;5023200;28;20361;-90
2023/05/17 03:24:05;;;;;;;;;;;4.40;99.90;;;;;;5022956;28;19920;-89
2023/05/17 03:26:32;;;;;;;;;;;4.40;99.90;;;;;;5015564;28;19915;-90
2023/05/17 03:28:58;;;;;;;;;;;4.40;99.90;;;;;;5033954;28;19914;-89
2023/05/17 03:31:24;;;;;;;;;;;4.30;99.90;;;;;;5044500;28;19909;-90
2023/05/17 03:33:50;;;;;;;;;;;4.30;99.90;;;;;;5038639;28;19959;-90
2023/05/17 03:39:46;;;;;;;;;;;4.40;99.90;;;;;;5033822;28;19904;-89
2023/05/17 03:42:12;;;;;;;;;;;4.40;99.90;;;;;;5029374;28;20146;-88
2023/05/17 03:44:39;;;;;;;;;;;4.40;99.90;;;;;;5019644;28;19913;-89
2023/05/17 03:47:05;;;;;;;;;;;4.40;99.90;;;;;;5016948;28;19913;-88
2023/05/17 03:49:30;;;;;;;;;;;4.40;99.90;;;;;;5036221;28;19909;-88
2023/05/17 03:51:57;;;;;;;;;;;4.30;99.90;;;;;;5026404;28;20004;-89
2023/05/17 03:54:22;;;;;;;;;;;4.30;99.90;;;;;;5024376;28;19944;-89
2023/05/17 03:56:49;;;;;;;;;;;4.30;99.90;;;;;;5034618;28;19954;-89
2023/05/17 03:59:15;;;;;;;;;;;4.30;99.90;;;;;;5031277;28;20605;-88
2023/05/17 04:01:42;;;;;;;;;;;4.30;99.90;;;;;;5033123;28;20570;-88
2023/05/17 04:04:08;;;;;;;;;;;4.30;99.90;;;;;;5043557;28;19963;-88
2023/05/17 04:06:34;;;;;;;;;;;4.20;99.90;;;;;;5033912;28;20361;-89
2023/05/17 04:09:00;;;;;;;;;;;4.20;99.90;;;;;;5033775;28;19909;-89
2023/05/17 04:11:26;;;;;;;;;;;4.20;99.90;;;;;;5030414;28;19963;-88
2023/05/17 04:13:52;;;;;;;;;;;4.20;99.90;;;;;;5019628;28;19991;-88
2023/05/17 04:16:18;;;;;;;;;;;4.20;99.90;;;;;;5032795;28;19927;-89
2023/05/17 04:18:44;;;;;;;;;;;4.30;99.90;;;;;;5033077;28;19909;-88
2023/05/17 04:21:11;;;;;;;;;;;4.30;99.90;;;;;;5031439;28;19905;-88
2023/05/17 04:23:37;;;;;;;;;;;4.30;99.90;;;;;;5022522;28;19913;-89
2023/05/17 04:26:04;;;;;;;;;;;4.40;99.90;;;;;;5017076;28;20353;-90
2023/05/17 04:28:36;;;;;;;;;;;4.40;99.90;;;;;;5033063;28;19964;-89
2023/05/17 04:31:05;;;;;;;;;;;4.50;99.90;;;;;;5033214;28;19920;-88
2023/05/17 04:33:59;;;;;;;;;;;4.50;99.90;;;;;;5032830;28;19916;-89
2023/05/17 04:36:25;;;;;;;;;;;4.50;99.90;;;;;;5033952;28;19913;-89
2023/05/17 04:42:21;;;;;;;;;;;4.60;99.90;;;;;;5019288;28;19955;-90
2023/05/17 04:44:52;;;;;;;;;;;4.70;99.90;;;;;;5034524;28;19909;-88
2023/05/17 04:47:18;;;;;;;;;;;4.70;99.90;;;;;;5020364;28;20596;-89
2023/05/17 04:49:43;;;;;;;;;;;4.80;99.90;;;;;;5036287;28;19920;-88
2023/05/17 04:52:11;;;;;;;;;;;4.90;99.90;;;;;;5037898;28;19925;-89
2023/05/17 04:54:37;;;;;;;;;;;4.90;99.90;;;;;;5029880;28;20337;-89
2023/05/17 04:57:03;;;;;;;;;;;5.00;99.90;;;;;;5040022;28;19960;-89
2023/05/17 04:59:47;;;;;;;;;;;5.00;99.90;;;;;;5026321;28;19917;-88
2023/05/17 05:02:13;;;;;;;;;;;5.10;99.90;;;;;;5034047;28;20268;-88
2023/05/17 05:04:39;;;;;;;;;;;5.10;99.90;;;;;;5049431;28;20345;-89
2023/05/17 05:07:25;;;;;;;;;;;5.10;99.90;;;;;;5027096;28;19968;-89
2023/05/17 05:09:51;;;;;;;;;;;5.20;99.90;;;;;;5037399;28;19920;-89
2023/05/17 05:12:17;;;;;;;;;;;5.20;99.90;;;;;;5037152;28;19909;-88
2023/05/17 05:14:43;;;;;;;;;;;5.30;99.90;;;;;;5028470;28;19975;-89
2023/05/17 05:17:09;;;;;;;;;;;5.40;99.90;;;;;;5033219;28;19909;-88
2023/05/17 05:19:35;;;;;;;;;;;5.40;99.90;;;;;;5035981;28;19909;-90
2023/05/17 05:22:01;;;;;;;;;;;5.50;99.90;;;;;;5036241;28;19932;-89
2023/05/17 05:24:28;;;;;;;;;;;5.60;99.90;;;;;;5032362;28;20604;-89
2023/05/17 05:27:10;;;;;;;;;;;5.70;99.90;;;;;;5034801;28;19958;-88
2023/05/17 05:29:55;;;;;;;;;;;5.80;99.90;;;;;;5008132;28;20364;-89
2023/05/17 05:32:22;;;;;;;;;;;5.90;99.90;;;;;;5033360;28;19921;-89
2023/05/17 05:34:48;;;;;;;;;;;6.00;99.90;;;;;;5048707;28;20059;-90
2023/05/17 05:37:32;;;;;;;;;;;6.10;99.90;;;;;;5033903;28;19912;-88
2023/05/17 05:40:20;;;;;;;;;;;6.20;99.90;;;;;;5035192;28;19910;-89
2023/05/17 05:42:45;;;;;;;;;;;6.30;99.90;;;;;;5019819;28;20336;-89
2023/05/17 05:45:11;;;;;;;;;;;6.40;99.90;;;;;;5034760;28;19912;-89
2023/05/17 05:47:41;;;;;;;;;;;6.50;99.90;;;;;;5045790;28;19944;-89
2023/05/17 05:50:07;;;;;;;;;;;6.50;99.90;;;;;;5027906;28;20318;-90
2023/05/17 05:52:34;;;;;;;;;;;6.70;99.90;;;;;;5028381;28;19917;-89
2023/05/17 05:55:00;;;;;;;;;;;6.70;99.90;;;;;;5034191;28;19913;-88
2023/05/17 05:57:25;;;;;;;;;;;6.80;99.90;;;;;;5018452;28;19918;-89
2023/05/17 05:59:52;;;;;;;;;;;6.90;99.90;;;;;;5031477;28;19913;-88
2023/05/17 06:02:18;;;;;;;;;;;7.00;99.90;;;;;;5025473;28;19913;-88
2023/05/17 06:04:45;;;;;;;;;;;7.10;99.90;;;;;;5012278;28;19912;-88
2023/05/17 06:07:11;;;;;;;;;;;7.20;99.90;;;;;;5030964;28;19999;-88
2023/05/17 06:09:37;;;;;;;;;;;7.20;99.90;;;;;;5027243;28;19905;-89
2023/05/17 06:12:03;;;;;;;;;;;7.30;99.90;;;;;;5031781;28;20266;-89
2023/05/17 06:14:29;;;;;;;;;;;7.50;99.90;;;;;;5034851;28;19917;-89
2023/05/17 06:16:54;;;;;;;;;;;7.50;99.90;;;;;;5030508;28;19972;-88
2023/05/17 06:19:20;;;;;;;;;;;7.50;99.90;;;;;;5012509;28;19920;-89
2023/05/17 06:21:45;;;;;;;;;;;7.60;99.90;;;;;;5041007;28;19909;-88
2023/05/17 06:24:11;;;;;;;;;;;7.70;99.90;;;;;;5025251;28;20522;-89
2023/05/17 06:26:37;;;;;;;;;;;7.70;99.90;;;;;;5011095;28;20284;-89
2023/05/17 06:29:02;;;;;;;;;;;7.60;99.90;;;;;;5028959;28;20349;-89
2023/05/17 06:31:28;;;;;;;;;;;7.60;99.90;;;;;;5041880;28;19995;-89
2023/05/17 06:33:54;;;;;;;;;;;7.70;99.90;;;;;;5048488;28;19905;-90
2023/05/17 06:36:19;;;;;;;;;;;7.80;99.90;;;;;;5026796;28;19987;-89
2023/05/17 06:38:45;;;;;;;;;;;7.90;99.90;;;;;;5033957;28;19913;-89
2023/05/17 06:41:11;;;;;;;;;;;7.90;99.90;;;;;;5034717;28;19909;-89
2023/05/17 06:43:37;;;;;;;;;;;8.00;99.90;;;;;;5028577;28;19970;-89
2023/05/17 06:46:02;;;;;;;;;;;8.10;99.90;;;;;;5029285;28;19909;-90
2023/05/17 06:48:33;;;;;;;;;;;8.10;99.90;;;;;;5032366;28;21137;-91
2023/05/17 06:50:59;;;;;;;;;;;8.20;99.90;;;;;;5030785;28;19913;-89
2023/05/17 06:53:26;;;;;;;;;;;8.30;99.90;;;;;;5042997;28;20019;-90
2023/05/17 06:55:51;;;;;;;;;;;8.40;99.90;;;;;;5026421;28;19913;-91
2023/05/17 06:58:20;;;;;;;;;;;8.50;99.90;;;;;;5031970;28;19920;-91
2023/05/17 07:00:46;;;;;;;;;;;8.80;99.90;;;;;;5031901;28;19913;-90
2023/05/17 07:03:11;;;;;;;;;;;9.00;99.90;;;;;;5034168;28;19919;-92
2023/05/17 07:05:37;;;;;;;;;;;9.20;99.90;;;;;;5033149;28;19948;-90
2023/05/17 07:08:03;;;;;;;;;;;9.30;99.90;;;;;;5028740;28;19915;-91
2023/05/17 07:10:29;;;;;;;;;;;9.40;99.90;;;;;;5039739;28;20320;-90
2023/05/17 07:12:54;;;;;;;;;;;9.50;99.90;;;;;;5030063;28;20000;-91
2023/05/17 07:15:20;;;;;;;;;;;9.60;99.90;;;;;;5024274;28;19909;-90
2023/05/17 07:17:46;;;;;;;;;;;9.50;99.90;;;;;;5028726;28;19951;-90
2023/05/17 07:20:12;;;;;;;;;;;9.60;99.90;;;;;;5014117;28;19928;-90
2023/05/17 07:22:37;;;;;;;;;;;9.50;99.90;;;;;;5032022;28;20361;-90
2023/05/17 07:25:03;;;;;;;;;;;9.50;99.90;;;;;;5021252;28;19912;-89
2023/05/17 07:27:29;;;;;;;;;;;9.30;99.90;;;;;;5031507;28;19912;-90
2023/05/17 07:29:55;;;;;;;;;;;9.20;99.90;;;;;;5029961;28;19920;-91
2023/05/17 07:32:21;;;;;;;;;;;9.50;99.90;;;;;;5025374;28;20371;-90
2023/05/17 07:34:46;;;;;;;;;;;9.90;99.90;;;;;;5032642;28;20296;-90
2023/05/17 07:37:12;;;;;;;;;;;10.10;99.90;;;;;;5034303;28;19940;-90
2023/05/17 07:39:41;;;;;;;;;;;10.20;99.90;;;;;;5031340;28;19920;-90
2023/05/17 07:42:07;;;;;;;;;;;10.20;99.90;;;;;;5049659;28;19919;-90
2023/05/17 07:44:54;;;;;;;;;;;10.30;99.90;;;;;;5048279;28;19905;-90
2023/05/17 07:47:20;;;;;;;;;;;10.60;99.90;;;;;;5022239;28;19909;-90
2023/05/17 07:49:46;;;;;;;;;;;10.90;99.90;;;;;;5016098;28;20360;-90
2023/05/17 07:52:12;;;;;;;;;;;11.20;99.90;;;;;;5035255;28;19987;-91
2023/05/17 07:54:38;;;;;;;;;;;11.70;99.90;;;;;;5034992;28;20236;-91
2023/05/17 07:57:03;;;;;;;;;;;12.50;99.90;;;;;;5032052;28;19913;-91
2023/05/17 08:00:03;;;;;;;;;;;13.10;99.90;;;;;;5031183;28;20438;-90
2023/05/17 08:02:37;;;;;;;;;;;14.20;99.90;;;;;;5022435;28;19960;-90
2023/05/17 08:05:03;;;;;;;;;;;14.50;99.90;;;;;;5027009;28;19909;-90
2023/05/17 08:07:29;;;;;;;;;;;14.20;99.90;;;;;;5031930;28;19912;-90
2023/05/17 08:09:54;;;;;;;;;;;13.50;99.90;;;;;;5031435;28;19939;-90
2023/05/17 08:12:20;;;;;;;;;;;12.70;99.90;;;;;;5035853;28;20028;-90
2023/05/17 08:14:46;;;;;;;;;;;12.70;99.90;;;;;;5030700;28;19909;-90
2023/05/17 08:17:12;;;;;;;;;;;12.80;99.90;;;;;;5026857;28;19953;-91
2023/05/17 08:19:37;;;;;;;;;;;12.80;99.90;;;;;;5032456;28;19910;-91
2023/05/17 08:22:22;;;;;;;;;;;13.50;99.90;;;;;;5037385;28;19940;-90
2023/05/17 08:24:47;;;;;;;;;;;13.80;99.90;;;;;;5023398;28;19999;-90
2023/05/17 08:27:13;;;;;;;;;;;13.70;99.90;;;;;;5053920;28;19947;-89
2023/05/17 08:29:39;;;;;;;;;;;13.70;99.90;;;;;;5029240;28;19937;-90
2023/05/17 08:32:05;;;;;;;;;;;13.80;99.90;;;;;;5027130;28;19919;-90
2023/05/17 08:34:58;;;;;;;;;;;14.20;99.90;;;;;;5019814;28;19913;-90
2023/05/17 08:37:24;;;;;;;;;;;14.20;99.90;;;;;;5007074;28;19920;-89
2023/05/17 08:39:50;;;;;;;;;;;13.30;99.90;;;;;;5042420;28;19909;-89
2023/05/17 08:42:20;;;;;;;;;;;13.00;99.90;;;;;;5029349;28;19967;-90
2023/05/17 08:44:46;;;;;;;;;;;13.10;99.90;;;;;;5016885;28;19917;-90
2023/05/17 08:47:24;;;;;;;;;;;12.70;99.90;;;;;;5041790;28;19909;-90
2023/05/17 08:49:50;;;;;;;;;;;12.40;99.90;;;;;;5027688;28;20383;-89
2023/05/17 08:52:16;;;;;;;;;;;12.40;99.90;;;;;;5032950;28;20390;-89
2023/05/17 08:54:41;;;;;;;;;;;12.40;99.90;;;;;;5052550;28;19959;-89
2023/05/17 08:57:09;;;;;;;;;;;12.30;99.90;;;;;;5013118;28;20030;-90
2023/05/17 09:00:00;;;;;;;;;;;12.20;99.90;;;;;;5016683;28;19917;-89
2023/05/17 09:02:27;;;;;;;;;;;12.10;99.90;;;;;;5017163;28;20772;-89
2023/05/17 09:04:54;;;;;;;;;;;12.00;99.90;;;;;;5033072;28;20349;-89
2023/05/17 09:07:23;;;;;;;;;;;12.10;99.90;;;;;;5030959;28;19955;-89
2023/05/17 09:09:53;;;;;;;;;;;12.20;99.90;;;;;;5034396;28;20388;-91
2023/05/17 09:12:19;;;;;;;;;;;12.10;99.90;;;;;;5007629;28;19950;-90
2023/05/17 09:14:45;;;;;;;;;;;11.70;99.90;;;;;;5028759;28;19909;-90
2023/05/17 09:17:17;;;;;;;;;;;11.50;99.90;;;;;;5037227;28;19920;-90
2023/05/17 09:19:44;;;;;;;;;;;11.50;99.90;;;;;;5025716;28;19909;-87
2023/05/17 09:22:14;;;;;;;;;;;11.60;99.90;;;;;;5026605;28;20360;-89
2023/05/17 09:24:40;;;;;;;;;;;11.40;99.90;;;;;;5016726;28;19948;-88
2023/05/17 09:27:06;;;;;;;;;;;11.10;99.90;;;;;;5039959;28;19919;-89
2023/05/17 09:29:32;;;;;;;;;;;10.90;99.90;;;;;;5034153;28;19995;-89
2023/05/17 09:32:15;;;;;;;;;;;11.00;99.90;;;;;;5019653;28;19919;-89
2023/05/17 09:34:58;;;;;;;;;;;11.00;99.90;;;;;;5033286;28;19917;-88
2023/05/17 09:37:26;;;;;;;;;;;10.90;99.90;;;;;;5034740;28;19964;-89
2023/05/17 09:43:25;;;;;;;;;;;11.40;99.90;;;;;;5032240;28;19920;-89
2023/05/17 09:45:55;;;;;;;;;;;11.80;99.90;;;;;;5037279;28;19913;-89
2023/05/17 09:48:21;;;;;;;;;;;12.00;99.90;;;;;;5024205;28;19909;-90
2023/05/17 09:50:48;;;;;;;;;;;12.00;99.90;;;;;;5014912;28;19975;-89
2023/05/17 09:53:27;;;;;;;;;;;12.10;99.90;;;;;;5022880;28;19916;-88
2023/05/17 09:55:53;;;;;;;;;;;12.30;99.90;;;;;;5047231;28;19921;-89
2023/05/17 09:58:30;;;;;;;;;;;12.30;99.90;;;;;;5030840;28;19912;-90
2023/05/17 10:01:00;;;;;;;;;;;12.70;99.90;;;;;;5034041;28;19913;-89
2023/05/17 10:03:29;;;;;;;;;;;13.10;99.90;;;;;;5047529;28;19916;-89
2023/05/17 10:05:55;;;;;;;;;;;13.40;99.90;;;;;;5038761;28;19905;-88
2023/05/17 10:11:51;;;;;;;;;;;13.20;99.90;;;;;;5027089;28;19919;-90
2023/05/17 10:14:22;;;;;;;;;;;14.00;99.90;;;;;;5035203;28;19916;-88
2023/05/17 10:16:49;;;;;;;;;;;13.70;99.90;;;;;;5027436;28;20793;-90
2023/05/17 10:19:15;;;;;;;;;;;13.20;99.90;;;;;;5043752;28;20372;-90
2023/05/17 10:21:42;;;;;;;;;;;13.30;99.90;;;;;;5027516;28;19916;-89
2023/05/17 10:24:08;;;;;;;;;;;13.20;99.90;;;;;;5021963;28;20047;-89
2023/05/17 10:26:35;;;;;;;;;;;13.30;99.90;;;;;;5011228;28;19913;-90
2023/05/17 10:29:01;;;;;;;;;;;13.40;99.90;;;;;;5028473;28;19913;-90
2023/05/17 10:31:28;;;;;;;;;;;13.20;99.90;;;;;;5045931;28;20296;-90
2023/05/17 10:33:54;;;;;;;;;;;13.00;99.90;;;;;;5039972;28;19909;-91
2023/05/17 10:36:20;;;;;;;;;;;13.20;99.90;;;;;;5016812;28;20380;-87
2023/05/17 10:38:46;;;;;;;;;;;13.60;99.90;;;;;;5022541;28;19915;-89
2023/05/17 10:41:13;;;;;;;;;;;13.40;99.90;;;;;;5025051;28;19909;-89
2023/05/17 10:43:40;;;;;;;;;;;13.30;99.90;;;;;;5032657;28;19921;-89
2023/05/17 10:46:20;;;;;;;;;;;13.30;99.90;;;;;;5017780;28;20376;-90
2023/05/17 10:48:53;;;;;;;;;;;12.90;99.90;;;;;;5031563;28;19965;-90
2023/05/17 10:51:25;;;;;;;;;;;12.80;99.90;;;;;;5034600;28;19959;-89
2023/05/17 10:54:11;;;;;;;;;;;12.50;99.90;;;;;;5031506;28;20353;-88
2023/05/17 10:56:52;;;;;;;;;;;12.50;99.90;;;;;;5032825;28;19920;-89
2023/05/17 10:59:22;;;;;;;;;;;12.70;99.90;;;;;;5034092;28;19928;-90
2023/05/17 11:01:57;;;;;;;;;;;12.70;99.90;;;;;;5022921;28;19909;-89
2023/05/17 11:04:24;;;;;;;;;;;12.40;99.90;;;;;;5022402;28;19916;-88
2023/05/17 11:06:50;;;;;;;;;;;12.50;99.90;;;;;;5015314;28;20325;-89
2023/05/17 11:09:17;;;;;;;;;;;12.50;99.90;;;;;;5023173;28;19905;-89
2023/05/17 11:12:01;;;;;;;;;;;12.80;99.90;;;;;;5031212;28;19963;-89
2023/05/17 11:14:45;;;;;;;;;;;13.10;99.90;;;;;;5006119;28;20310;-89
2023/05/17 11:17:15;;;;;;;;;;;13.30;99.90;;;;;;5016345;28;19940;-89
2023/05/17 11:19:52;;;;;;;;;;;13.70;99.90;;;;;;5015762;28;19913;-90
2023/05/17 11:22:33;;;;;;;;;;;13.70;99.90;;;;;;5033543;28;20646;-90
2023/05/17 11:25:00;;;;;;;;;;;13.80;99.90;;;;;;5012312;28;19963;-89
2023/05/17 11:27:27;;;;;;;;;;;13.70;99.90;;;;;;5042245;28;19912;-89
2023/05/17 11:29:59;;;;;;;;;;;13.40;99.90;;;;;;5019445;28;19955;-89
2023/05/17 11:32:28;;;;;;;;;;;13.20;99.90;;;;;;5018510;28;19956;-89
2023/05/17 11:34:54;;;;;;;;;;;13.20;99.90;;;;;;5012726;28;19909;-89
2023/05/17 11:37:26;;;;;;;;;;;13.30;99.90;;;;;;5010093;28;19921;-89
2023/05/17 11:40:05;;;;;;;;;;;12.90;99.90;;;;;;5029757;28;19909;-89
2023/05/17 11:42:31;;;;;;;;;;;12.80;99.90;;;;;;5027169;28;20090;-90
2023/05/17 11:44:57;;;;;;;;;;;13.00;99.90;;;;;;5029252;28;19909;-90
2023/05/17 11:47:46;;;;;;;;;;;13.40;99.90;;;;;;5027428;28;19910;-89
2023/05/17 11:50:13;;;;;;;;;;;14.10;99.90;;;;;;5016729;28;19909;-90
2023/05/17 11:52:53;;;;;;;;;;;14.50;99.90;;;;;;5027715;28;19919;-90
2023/05/17 11:55:18;;;;;;;;;;;14.50;99.90;;;;;;5023980;28;19956;-90
2023/05/17 11:57:44;;;;;;;;;;;15.10;99.90;;;;;;5020744;28;20011;-90
2023/05/17 12:00:10;;;;;;;;;;;15.50;99.90;;;;;;5000996;28;19963;-90
2023/05/17 12:02:39;;;;;;;;;;;15.80;98.20;;;;;;5033387;28;19920;-89
2023/05/17 12:05:04;;;;;;;;;;;16.20;95.70;;;;;;5035536;28;19912;-89
2023/05/17 12:07:55;;;;;;;;;;;16.30;93.70;;;;;;5017475;28;19909;-89
2023/05/17 12:10:21;;;;;;;;;;;16.10;92.80;;;;;;5028925;28;19913;-89
2023/05/17 12:13:08;;;;;;;;;;;15.90;94.30;;;;;;5031140;28;19947;-89
2023/05/17 12:15:34;;;;;;;;;;;15.90;95.80;;;;;;5014521;28;19920;-89
2023/05/17 12:18:00;;;;;;;;;;;16.00;96.30;;;;;;5012166;28;20361;-89
2023/05/17 12:20:25;;;;;;;;;;;15.80;94.30;;;;;;5013992;28;19917;-89
2023/05/17 12:23:19;;;;;;;;;;;15.90;94.10;;;;;;5032116;28;20329;-88
2023/05/17 12:25:45;;;;;;;;;;;15.60;96.50;;;;;;5008520;28;19914;-89
2023/05/17 12:28:21;;;;;;;;;;;15.20;95.20;;;;;;5032985;28;19913;-90
2023/05/17 12:30:51;;;;;;;;;;;15.30;96.40;;;;;;5019165;28;19910;-89
2023/05/17 12:33:17;;;;;;;;;;;15.70;93.60;;;;;;5026618;28;19909;-88
2023/05/17 12:35:43;;;;;;;;;;;16.10;94.60;;;;;;5032035;28;19910;-89
2023/05/17 12:38:10;;;;;;;;;;;16.60;93.20;;;;;;5022353;28;19913;-89
2023/05/17 12:40:37;;;;;;;;;;;16.90;92.90;;;;;;5024983;28;19955;-89
2023/05/17 12:43:03;;;;;;;;;;;16.50;91.40;;;;;;5032689;28;19909;-90
2023/05/17 12:45:28;;;;;;;;;;;16.00;92.60;;;;;;5025362;28;20523;-89
2023/05/17 12:47:54;;;;;;;;;;;15.70;93.50;;;;;;5022985;28;19910;-88
2023/05/17 12:50:29;;;;;;;;;;;15.20;94.60;;;;;;5019591;28;19915;-88
2023/05/17 12:52:55;;;;;;;;;;;14.70;94.60;;;;;;5032780;28;19909;-89
2023/05/17 12:55:20;;;;;;;;;;;14.30;96.40;;;;;;5026830;28;20666;-88
2023/05/17 12:57:50;;;;;;;;;;;14.60;97.20;;;;;;5026284;28;19913;-89
2023/05/17 13:00:16;;;;;;;;;;;15.40;96.30;;;;;;5024688;28;19948;-89
2023/05/17 13:02:42;;;;;;;;;;;16.00;92.20;;;;;;5033401;28;19916;-89
2023/05/17 13:05:17;;;;;;;;;;;16.90;91.20;;;;;;5005537;28;19909;-90
2023/05/17 13:07:44;;;;;;;;;;;17.80;86.30;;;;;;5020491;28;19916;-89
2023/05/17 13:10:20;;;;;;;;;;;18.50;84.50;;;;;;5032690;28;19909;-89
2023/05/17 13:12:58;;;;;;;;;;;19.10;85.70;;;;;;5015561;28;19908;-88
2023/05/17 13:15:31;;;;;;;;;;;18.40;83.60;;;;;;5028194;28;19924;-88
2023/05/17 13:18:16;;;;;;;;;;;17.20;82.60;;;;;;5030085;28;19959;-88
2023/05/17 13:20:42;;;;;;;;;;;17.50;87.60;;;;;;5027239;28;19917;-88
2023/05/17 13:23:08;;;;;;;;;;;18.00;80.50;;;;;;5035565;28;20340;-89
2023/05/17 13:25:35;;;;;;;;;;;17.30;82.60;;;;;;5035552;28;19967;-89
2023/05/17 13:28:01;;;;;;;;;;;16.50;84.30;;;;;;5021032;28;19916;-88
2023/05/17 13:30:39;;;;;;;;;;;16.00;86.00;;;;;;5025612;28;19905;-89
2023/05/17 13:33:05;;;;;;;;;;;15.90;85.30;;;;;;5025125;28;19919;-89
2023/05/17 13:35:30;;;;;;;;;;;17.00;86.60;;;;;;5035354;28;20284;-87
2023/05/17 13:37:56;;;;;;;;;;;18.30;86.50;;;;;;5045755;28;20016;-88
2023/05/17 13:40:22;;;;;;;;;;;18.70;84.30;;;;;;5021277;28;19919;-88
2023/05/17 13:42:48;;;;;;;;;;;18.60;82.40;;;;;;5032856;28;19957;-89
2023/05/17 13:45:13;;;;;;;;;;;18.50;79.30;;;;;;5041460;28;19910;-89
2023/05/17 13:47:39;;;;;;;;;;;18.40;84.00;;;;;;5032370;28;20295;-89
2023/05/17 13:50:05;;;;;;;;;;;19.10;79.80;;;;;;5035938;28;20310;-89
2023/05/17 13:52:31;;;;;;;;;;;19.80;77.90;;;;;;5035673;28;19913;-89
2023/05/17 13:54:56;;;;;;;;;;;18.80;78.00;;;;;;5028907;28;19956;-88
2023/05/17 13:57:53;;;;;;;;;;;17.80;79.00;;;;;;5023939;28;20008;-88
2023/05/17 14:00:19;;;;;;;;;;;17.30;80.90;;;;;;5027370;28;19922;-88
2023/05/17 14:02:45;;;;;;;;;;;16.70;81.70;;;;;;5043464;28;19916;-88
2023/05/17 14:05:10;;;;;;;;;;;16.10;83.20;;;;;;5023527;28;20272;-89
2023/05/17 14:07:41;;;;;;;;;;;16.00;87.50;;;;;;5029845;28;19909;-89
2023/05/17 14:10:08;;;;;;;;;;;16.90;85.20;;;;;;5018038;28;19909;-89
2023/05/17 14:12:34;;;;;;;;;;;17.60;81.80;;;;;;5035287;28;20609;-89
2023/05/17 14:14:59;;;;;;;;;;;17.90;79.80;;;;;;5048062;28;19983;-89
2023/05/17 14:17:25;;;;;;;;;;;18.10;79.60;;;;;;5019569;28;19973;-88
2023/05/17 14:19:51;;;;;;;;;;;18.00;81.20;;;;;;5042528;28;19909;-88
2023/05/17 14:22:17;;;;;;;;;;;17.40;79.80;;;;;;5026657;28;19913;-88
2023/05/17 14:24:42;;;;;;;;;;;16.60;83.20;;;;;;5019046;28;20015;-88
2023/05/17 14:27:08;;;;;;;;;;;16.20;83.10;;;;;;5034599;28;19919;-88
2023/05/17 14:29:34;;;;;;;;;;;15.50;84.40;;;;;;5026934;28;20400;-88
2023/05/17 14:31:59;;;;;;;;;;;15.20;90.10;;;;;;5028980;28;19913;-88
2023/05/17 14:34:25;;;;;;;;;;;15.10;88.30;;;;;;5022252;28;19917;-87
2023/05/17 14:36:52;;;;;;;;;;;15.20;85.40;;;;;;5035580;28;19955;-88
2023/05/17 14:39:17;;;;;;;;;;;15.50;85.50;;;;;;5032759;28;19914;-89
2023/05/17 14:41:43;;;;;;;;;;;16.10;82.80;;;;;;5029252;28;20303;-88
2023/05/17 14:44:08;;;;;;;;;;;16.40;85.20;;;;;;5037307;28;19952;-88